createdAt,value
2022-08-20T00:09:08.014Z,17.910000000000004
2022-08-20T00:24:23.986Z,18.029999999999998
2022-08-20T00:39:40.984Z,17.970000000000002
2022-08-20T00:54:57.925Z,17.940000000000005
2022-08-20T01:10:15.895Z,17.870000000000005
2022-08-20T01:25:31.873Z,17.63
2022-08-20T01:40:47.836Z,17.339999999999996
2022-08-20T01:56:03.811Z,17.35
2022-08-20T02:11:20.792Z,17.19
2022-08-20T02:26:36.712Z,16.98
2022-08-20T02:41:53.716Z,16.869999999999997
2022-08-20T02:57:10.651Z,16.839999999999996
2022-08-20T03:12:27.659Z,16.82
2022-08-20T03:27:43.602Z,16.6
2022-08-20T03:43:00.604Z,16.48
2022-08-20T03:58:17.543Z,16.49
2022-08-20T04:13:40.217Z,16.41
2022-08-20T04:28:52.482Z,16.259999999999998
2022-08-20T04:44:08.490Z,16.23
2022-08-20T04:59:24.430Z,16.31
2022-08-20T05:14:41.436Z,16.48
2022-08-20T05:29:57.363Z,17.6
2022-08-20T05:45:14.379Z,18.160000000000004
2022-08-20T06:00:31.308Z,18.58
2022-08-20T06:15:48.319Z,18.356341334044917
2022-08-20T06:31:04.272Z,18.366290472050473
2022-08-20T06:46:20.217Z,18.336971383692614
2022-08-20T07:01:36.319Z,18.338416461061158
2022-08-20T07:16:53.156Z,18.011246026591213
2022-08-20T07:32:09.697Z,17.863564625207776
2022-08-20T07:47:26.101Z,17.85366145839461
2022-08-20T08:02:43.105Z,17.663016076499392
2022-08-20T08:18:00.024Z,17.569562549392955
2022-08-20T08:33:15.992Z,17.81435281271132
2022-08-20T08:48:31.963Z,18.196501370610108
2022-08-20T09:03:47.928Z,19.187290545270475
2022-08-20T09:19:04.900Z,18.81887597132645
2022-08-20T09:34:21.864Z,18.825068073218397
2022-08-20T09:49:38.834Z,18.122366025659815
2022-08-20T10:04:54.830Z,17.616775770760018
2022-08-20T10:20:11.769Z,17.252797829376757
2022-08-20T10:35:27.736Z,17.92107111134185
2022-08-20T10:50:43.711Z,17.439480894916844
2022-08-20T11:05:59.663Z,17.180744155094136
2022-08-20T11:21:16.671Z,16.999141338676864
2022-08-20T11:36:33.601Z,16.821843914702256
2022-08-20T11:51:50.595Z,16.863250248428056
2022-08-20T12:07:06.530Z,16.541484658563114
2022-08-20T12:22:24.663Z,16.42464464141539
2022-08-20T12:37:40.465Z,17.03317435770219
2022-08-20T12:52:57.685Z,16.655647435540242
2022-08-20T13:08:14.443Z,16.533317270767085
2022-08-20T13:23:31.404Z,16.911492048431253
2022-08-20T13:38:47.376Z,16.319373897700157
2022-08-20T13:54:03.341Z,16.30694508085962
2022-08-20T14:09:19.312Z,16.108875822088283
2022-08-20T14:24:36.285Z,16.45488034450949
2022-08-20T14:39:53.297Z,16.08565676340501
2022-08-20T14:55:10.216Z,15.79853535881355
2022-08-20T15:10:26.184Z,15.847988927813306
2022-08-20T15:25:43.144Z,15.639607632233
2022-08-20T15:40:59.113Z,16.202262426492716
2022-08-20T15:56:15.049Z,16.109684715868774
2022-08-20T16:11:47.446Z,16.333898679605372
2022-08-20T16:26:48.991Z,15.934578132319436
2022-08-20T16:42:06.117Z,15.920524281585644
2022-08-20T16:57:21.916Z,15.722266360056809
2022-08-20T17:12:38.908Z,15.747599840429261
2022-08-20T17:27:54.850Z,15.491666946266847
2022-08-20T17:43:10.865Z,15.341784371348501
2022-08-20T17:58:27.787Z,15.496898574105693
2022-08-20T18:13:48.398Z,15.427817386497372
2022-08-20T18:29:02.738Z,15.507628390076263
2022-08-20T18:44:19.729Z,15.349748342728834
2022-08-20T18:59:35.666Z,15.115890198394139
2022-08-20T19:14:52.634Z,15.126846232213879
2022-08-20T19:30:08.601Z,15.173594341904659
2022-08-20T19:45:24.605Z,15.244584642112239
2022-08-20T20:00:41.542Z,15.34154695779727
2022-08-20T20:15:59.505Z,15.547746617028162
2022-08-20T20:31:16.509Z,15.66724057026159
2022-08-20T20:46:32.448Z,15.965120599958457
2022-08-20T21:01:50.379Z,16.56849836074658
2022-08-20T21:17:05.382Z,17.074615746380832
2022-08-20T21:32:21.382Z,17.481150644342513
2022-08-20T21:47:37.329Z,17.69869356334532
2022-08-20T22:02:54.351Z,17.682385395360445
2022-08-20T22:18:12.288Z,18.14207456734182
2022-08-20T22:33:29.222Z,18.155798624311025
2022-08-20T22:48:45.202Z,18.506832370716523
2022-08-20T23:04:01.162Z,18.582728767263657
2022-08-20T23:19:18.169Z,18.592945098732972
2022-08-20T23:34:34.097Z,18.679698913011972
2022-08-20T23:49:51.075Z,18.949061271254177
